Tarialan, Mongolia
Current Conditions -  °F | °C
As of 7:30 AM on Tuesday 23 Dec 2014 (Local Time) from UIII Reporting Station
Clear Clear  
Wind Chill: 12°   Ceiling: Unl
Heat Index: 12°   Visibility: 6mi
Dew Point:   Wind: 0mph
Humidity: 85%   Direction: NA
Pressure: 30.3"   Gusts: NA
Location:  49.57°N, 102°E
Report Text: UIII 222330Z 00000MPS CAVOK M11/M13 Q1026 NOSIG RMK QFE724/096630850350
Loading
Personal Weather Stations






























Interactive Weather Map New forecast layout! Learn more

10-Day Weather Forecast

Advertisements
Track Severe Weather on mobile